sensor_id;sensor_type;location;lat;lon;timestamp;pressure;altitude;pressure_sealevel;temperature;humidity
50977;BME280;36992;48.200;12.418;2023-12-22T00:01:35;95105.41;;;8.14;49.96
50977;BME280;36992;48.200;12.418;2023-12-22T00:04:03;95110.63;;;8.10;49.43
50977;BME280;36992;48.200;12.418;2023-12-22T00:06:32;95127.97;;;8.13;49.63
50977;BME280;36992;48.200;12.418;2023-12-22T00:08:58;95115.81;;;8.06;49.42
50977;BME280;36992;48.200;12.418;2023-12-22T00:11:25;95134.91;;;8.05;48.56
50977;BME280;36992;48.200;12.418;2023-12-22T00:13:51;95122.75;;;7.99;49.44
50977;BME280;36992;48.200;12.418;2023-12-22T00:16:18;95161.41;;;7.97;49.59
50977;BME280;36992;48.200;12.418;2023-12-22T00:18:44;95163.59;;;7.87;49.59
50977;BME280;36992;48.200;12.418;2023-12-22T00:21:12;95177.59;;;7.83;50.50
50977;BME280;36992;48.200;12.418;2023-12-22T00:23:39;95166.41;;;7.73;51.25
50977;BME280;36992;48.200;12.418;2023-12-22T00:26:05;95185.47;;;7.71;50.85
50977;BME280;36992;48.200;12.418;2023-12-22T00:28:32;95195.06;;;7.63;51.33
50977;BME280;36992;48.200;12.418;2023-12-22T00:30:58;95233.34;;;7.55;51.50
50977;BME280;36992;48.200;12.418;2023-12-22T00:33:25;95206.31;;;7.42;51.63
50977;BME280;36992;48.200;12.418;2023-12-22T00:35:51;95202.19;;;7.36;52.61
50977;BME280;36992;48.200;12.418;2023-12-22T00:38:19;95200.16;;;7.33;52.20
50977;BME280;36992;48.200;12.418;2023-12-22T00:40:46;95177.41;;;7.22;52.65
50977;BME280;36992;48.200;12.418;2023-12-22T00:43:12;95168.41;;;7.18;52.50
50977;BME280;36992;48.200;12.418;2023-12-22T00:45:39;95162.53;;;7.07;52.96
50977;BME280;36992;48.200;12.418;2023-12-22T00:48:05;95169.91;;;7.01;53.27
50977;BME280;36992;48.200;12.418;2023-12-22T00:50:32;95172.72;;;6.96;53.50
50977;BME280;36992;48.200;12.418;2023-12-22T00:52:58;95176.59;;;6.90;53.71
50977;BME280;36992;48.200;12.418;2023-12-22T00:55:26;95173.94;;;6.90;54.28
50977;BME280;36992;48.200;12.418;2023-12-22T00:57:53;95170.75;;;6.87;53.64
50977;BME280;36992;48.200;12.418;2023-12-22T01:00:19;95163.66;;;6.83;53.96
50977;BME280;36992;48.200;12.418;2023-12-22T01:02:46;95182.69;;;6.81;54.10
50977;BME280;36992;48.200;12.418;2023-12-22T01:05:12;95188.84;;;6.82;53.96
50977;BME280;36992;48.200;12.418;2023-12-22T01:07:39;95167.84;;;6.75;54.57
50977;BME280;36992;48.200;12.418;2023-12-22T01:10:06;95175.09;;;6.74;54.00
50977;BME280;36992;48.200;12.418;2023-12-22T01:12:35;95167.97;;;6.70;54.73
50977;BME280;36992;48.200;12.418;2023-12-22T01:15:02;95181.38;;;6.70;54.82
50977;BME280;36992;48.200;12.418;2023-12-22T01:17:29;95173.94;;;6.67;55.10
50977;BME280;36992;48.200;12.418;2023-12-22T01:19:55;95189.50;;;6.65;55.37
50977;BME280;36992;48.200;12.418;2023-12-22T01:22:22;95190.91;;;6.62;55.38
50977;BME280;36992;48.200;12.418;2023-12-22T01:24:49;95206.16;;;6.61;55.06
50977;BME280;36992;48.200;12.418;2023-12-22T01:27:15;95197.84;;;6.63;55.13
50977;BME280;36992;48.200;12.418;2023-12-22T01:29:43;95192.47;;;6.63;55.37
50977;BME280;36992;48.200;12.418;2023-12-22T01:32:09;95197.03;;;6.63;55.26
50977;BME280;36992;48.200;12.418;2023-12-22T01:34:36;95181.59;;;6.59;55.33
50977;BME280;36992;48.200;12.418;2023-12-22T01:37:03;95192.31;;;6.59;55.38
50977;BME280;36992;48.200;12.418;2023-12-22T01:39:29;95201.44;;;6.58;55.73
50977;BME280;36992;48.200;12.418;2023-12-22T01:41:56;95221.56;;;6.56;55.45
50977;BME280;36992;48.200;12.418;2023-12-22T01:44:22;95197.94;;;6.58;55.21
50977;BME280;36992;48.200;12.418;2023-12-22T01:46:50;95190.72;;;6.58;55.50
50977;BME280;36992;48.200;12.418;2023-12-22T01:49:17;95193.22;;;6.55;55.47
50977;BME280;36992;48.200;12.418;2023-12-22T01:51:45;95191.03;;;6.57;55.23
50977;BME280;36992;48.200;12.418;2023-12-22T01:54:13;95199.84;;;6.57;55.00
50977;BME280;36992;48.200;12.418;2023-12-22T01:56:40;95211.16;;;6.54;55.52
50977;BME280;36992;48.200;12.418;2023-12-22T01:59:08;95221.56;;;6.56;55.51
50977;BME280;36992;48.200;12.418;2023-12-22T02:01:35;95193.69;;;6.57;55.63
50977;BME280;36992;48.200;12.418;2023-12-22T02:04:03;95185.38;;;6.58;55.54
50977;BME280;36992;48.200;12.418;2023-12-22T02:06:31;95195.56;;;6.56;55.48
50977;BME280;36992;48.200;12.418;2023-12-22T02:09:00;95204.41;;;6.57;55.70
50977;BME280;36992;48.200;12.418;2023-12-22T02:11:28;95201.44;;;6.58;55.88
50977;BME280;36992;48.200;12.418;2023-12-22T02:13:55;95205.19;;;6.57;55.73
50977;BME280;36992;48.200;12.418;2023-12-22T02:16:28;95197.94;;;6.58;55.76
50977;BME280;36992;48.200;12.418;2023-12-22T02:18:59;95205.19;;;6.57;55.63
50977;BME280;36992;48.200;12.418;2023-12-22T02:21:29;95198.47;;;6.60;55.63
50977;BME280;36992;48.200;12.418;2023-12-22T02:23:57;95212.13;;;6.58;55.40
50977;BME280;36992;48.200;12.418;2023-12-22T02:26:28;95220.16;;;6.58;56.12
50977;BME280;36992;48.200;12.418;2023-12-22T02:29:00;95215.41;;;6.55;56.25
50977;BME280;36992;48.200;12.418;2023-12-22T02:31:33;95214.28;;;6.56;56.18
50977;BME280;36992;48.200;12.418;2023-12-22T02:34:05;95214.28;;;6.56;56.47
50977;BME280;36992;48.200;12.418;2023-12-22T02:36:35;95210.56;;;6.57;56.59
50977;BME280;36992;48.200;12.418;2023-12-22T02:39:05;95222.03;;;6.58;56.69
50977;BME280;36992;48.200;12.418;2023-12-22T02:41:33;95205.97;;;6.58;56.71
50977;BME280;36992;48.200;12.418;2023-12-22T02:44:00;95220.75;;;6.55;56.78
50977;BME280;36992;48.200;12.418;2023-12-22T02:46:27;95226.91;;;6.56;56.35
50977;BME280;36992;48.200;12.418;2023-12-22T02:48:54;95247.81;;;6.54;57.12
50977;BME280;36992;48.200;12.418;2023-12-22T02:51:20;95251.91;;;6.51;56.81
50977;BME280;36992;48.200;12.418;2023-12-22T02:53:47;95262.09;;;6.49;57.18
50977;BME280;36992;48.200;12.418;2023-12-22T02:56:15;95263.88;;;6.54;57.01
50977;BME280;36992;48.200;12.418;2023-12-22T02:58:41;95258.31;;;6.50;57.01
50977;BME280;36992;48.200;12.418;2023-12-22T03:01:08;95274.38;;;6.50;56.95
50977;BME280;36992;48.200;12.418;2023-12-22T03:03:34;95257.53;;;6.50;57.11
50977;BME280;36992;48.200;12.418;2023-12-22T03:06:01;95255.16;;;6.48;56.93
50977;BME280;36992;48.200;12.418;2023-12-22T03:08:27;95258.44;;;6.45;57.29
50977;BME280;36992;48.200;12.418;2023-12-22T03:10:54;95260.81;;;6.46;57.00
50977;BME280;36992;48.200;12.418;2023-12-22T03:13:22;95243.69;;;6.47;57.39
50977;BME280;36992;48.200;12.418;2023-12-22T03:15:48;95239.09;;;6.48;56.63
50977;BME280;36992;48.200;12.418;2023-12-22T03:18:15;95230.78;;;6.50;56.88
50977;BME280;36992;48.200;12.418;2023-12-22T03:20:41;95232.19;;;6.47;56.89
50977;BME280;36992;48.200;12.418;2023-12-22T03:23:08;95226.81;;;6.47;56.23
50977;BME280;36992;48.200;12.418;2023-12-22T03:25:34;95217.22;;;6.46;56.35
50977;BME280;36992;48.200;12.418;2023-12-22T03:28:01;95204.94;;;6.45;56.61
50977;BME280;36992;48.200;12.418;2023-12-22T03:30:29;95209.19;;;6.46;56.28
50977;BME280;36992;48.200;12.418;2023-12-22T03:32:55;95213.56;;;6.42;56.77
50977;BME280;36992;48.200;12.418;2023-12-22T03:35:22;95202.69;;;6.38;56.48
50977;BME280;36992;48.200;12.418;2023-12-22T03:37:48;95199.53;;;6.36;56.70
50977;BME280;36992;48.200;12.418;2023-12-22T03:40:15;95210.03;;;6.32;57.09
50977;BME280;36992;48.200;12.418;2023-12-22T03:42:41;95199.34;;;6.32;56.97
50977;BME280;36992;48.200;12.418;2023-12-22T03:45:08;95172.09;;;6.30;57.30
50977;BME280;36992;48.200;12.418;2023-12-22T03:47:36;95182.19;;;6.33;56.93
50977;BME280;36992;48.200;12.418;2023-12-22T03:50:03;95187.03;;;6.31;57.22
50977;BME280;36992;48.200;12.418;2023-12-22T03:52:29;95180.09;;;6.30;57.51
50977;BME280;36992;48.200;12.418;2023-12-22T03:54:56;95181.22;;;6.29;57.22
50977;BME280;36992;48.200;12.418;2023-12-22T03:57:22;95188.44;;;6.29;57.62
50977;BME280;36992;48.200;12.418;2023-12-22T03:59:49;95190.03;;;6.30;57.48
50977;BME280;36992;48.200;12.418;2023-12-22T04:02:15;95190.50;;;6.32;57.33
50977;BME280;36992;48.200;12.418;2023-12-22T04:04:43;95188.13;;;6.30;57.29
50977;BME280;36992;48.200;12.418;2023-12-22T04:07:10;95183.88;;;6.29;57.71
50977;BME280;36992;48.200;12.418;2023-12-22T04:09:36;95192.72;;;6.30;57.79
50977;BME280;36992;48.200;12.418;2023-12-22T04:12:04;95193.81;;;6.29;57.75
50977;BME280;36992;48.200;12.418;2023-12-22T04:14:30;95204.50;;;6.29;57.69
50977;BME280;36992;48.200;12.418;2023-12-22T04:16:57;95214.09;;;6.30;57.71
50977;BME280;36992;48.200;12.418;2023-12-22T04:19:23;95204.19;;;6.30;57.73
50977;BME280;36992;48.200;12.418;2023-12-22T04:21:51;95187.53;;;6.33;57.59
50977;BME280;36992;48.200;12.418;2023-12-22T04:24:18;95183.28;;;6.32;57.71
50977;BME280;36992;48.200;12.418;2023-12-22T04:26:44;95181.38;;;6.33;57.80
50977;BME280;36992;48.200;12.418;2023-12-22T04:29:11;95161.91;;;6.32;57.81
50977;BME280;36992;48.200;12.418;2023-12-22T04:31:37;95185.47;;;6.30;57.58
50977;BME280;36992;48.200;12.418;2023-12-22T04:34:04;95196.59;;;6.24;57.92
50977;BME280;36992;48.200;12.418;2023-12-22T04:36:30;95211.81;;;6.23;58.04
50977;BME280;36992;48.200;12.418;2023-12-22T04:38:58;95209.16;;;6.23;57.82
50977;BME280;36992;48.200;12.418;2023-12-22T04:41:25;95206.28;;;6.19;58.23
50977;BME280;36992;48.200;12.418;2023-12-22T04:43:51;95195.00;;;6.23;58.08
50977;BME280;36992;48.200;12.418;2023-12-22T04:46:18;95190.44;;;6.23;58.46
50977;BME280;36992;48.200;12.418;2023-12-22T04:48:44;95186.47;;;6.20;58.07
50977;BME280;36992;48.200;12.418;2023-12-22T04:51:11;95183.03;;;6.20;58.15
50977;BME280;36992;48.200;12.418;2023-12-22T04:53:37;95199.06;;;6.20;58.16
50977;BME280;36992;48.200;12.418;2023-12-22T04:56:05;95182.13;;;6.25;58.21
50977;BME280;36992;48.200;12.418;2023-12-22T04:58:32;95177.53;;;6.25;58.14
50977;BME280;36992;48.200;12.418;2023-12-22T05:00:59;95192.19;;;6.28;58.33
50977;BME280;36992;48.200;12.418;2023-12-22T05:03:25;95179.34;;;6.30;58.61
50977;BME280;36992;48.200;12.418;2023-12-22T05:05:52;95186.75;;;6.33;58.14
50977;BME280;36992;48.200;12.418;2023-12-22T05:08:18;95183.47;;;6.36;57.87
50977;BME280;36992;48.200;12.418;2023-12-22T05:10:45;95197.63;;;6.37;57.35
50977;BME280;36992;48.200;12.418;2023-12-22T05:13:13;95195.94;;;6.41;57.27
50977;BME280;36992;48.200;12.418;2023-12-22T05:15:39;95187.44;;;6.39;57.41
50977;BME280;36992;48.200;12.418;2023-12-22T05:18:06;95207.22;;;6.38;57.53
50977;BME280;36992;48.200;12.418;2023-12-22T05:20:32;95262.31;;;6.39;57.34
50977;BME280;36992;48.200;12.418;2023-12-22T05:22:59;95276.78;;;6.38;57.62
50977;BME280;36992;48.200;12.418;2023-12-22T05:25:26;95295.50;;;6.38;57.33
50977;BME280;36992;48.200;12.418;2023-12-22T05:27:54;95283.81;;;6.33;56.57
50977;BME280;36992;48.200;12.418;2023-12-22T05:30:22;95300.47;;;6.30;56.79
50977;BME280;36992;48.200;12.418;2023-12-22T05:32:48;95296.31;;;6.24;56.66
50977;BME280;36992;48.200;12.418;2023-12-22T05:35:15;95291.06;;;6.19;56.31
50977;BME280;36992;48.200;12.418;2023-12-22T05:37:41;95287.03;;;6.07;56.84
50977;BME280;36992;48.200;12.418;2023-12-22T05:40:08;95291.94;;;6.00;57.07
50977;BME280;36992;48.200;12.418;2023-12-22T05:42:37;95289.56;;;5.99;56.53
50977;BME280;36992;48.200;12.418;2023-12-22T05:45:04;95286.00;;;5.89;57.57
50977;BME280;36992;48.200;12.418;2023-12-22T05:47:33;95278.25;;;5.88;57.71
50977;BME280;36992;48.200;12.418;2023-12-22T05:49:59;95286.41;;;5.83;57.73
50977;BME280;36992;48.200;12.418;2023-12-22T05:52:26;95284.03;;;5.81;58.08
50977;BME280;36992;48.200;12.418;2023-12-22T05:54:52;95288.06;;;5.78;58.64
50977;BME280;36992;48.200;12.418;2023-12-22T05:57:19;95302.53;;;5.77;58.25
50977;BME280;36992;48.200;12.418;2023-12-22T05:59:46;95307.97;;;5.72;57.87
50977;BME280;36992;48.200;12.418;2023-12-22T06:02:12;95294.59;;;5.72;57.94
50977;BME280;36992;48.200;12.418;2023-12-22T06:04:41;95291.72;;;5.69;58.47
50977;BME280;36992;48.200;12.418;2023-12-22T06:07:10;95292.00;;;5.67;58.45
50977;BME280;36992;48.200;12.418;2023-12-22T06:09:36;95281.94;;;5.64;58.57
50977;BME280;36992;48.200;12.418;2023-12-22T06:12:05;95281.94;;;5.64;58.75
50977;BME280;36992;48.200;12.418;2023-12-22T06:14:31;95283.00;;;5.63;58.74
50977;BME280;36992;48.200;12.418;2023-12-22T06:17:00;95296.34;;;5.63;58.71
50977;BME280;36992;48.200;12.418;2023-12-22T06:19:26;95285.66;;;5.63;58.75
50977;BME280;36992;48.200;12.418;2023-12-22T06:21:57;95284.09;;;5.62;59.01
50977;BME280;36992;48.200;12.418;2023-12-22T06:24:25;95277.16;;;5.61;58.89
50977;BME280;36992;48.200;12.418;2023-12-22T06:26:51;95293.19;;;5.61;59.15
50977;BME280;36992;48.200;12.418;2023-12-22T06:29:18;95300.44;;;5.60;58.98
50977;BME280;36992;48.200;12.418;2023-12-22T06:31:44;95295.88;;;5.61;59.12
50977;BME280;36992;48.200;12.418;2023-12-22T06:34:15;95300.13;;;5.62;58.87
50977;BME280;36992;48.200;12.418;2023-12-22T06:36:42;95321.50;;;5.62;58.92
50977;BME280;36992;48.200;12.418;2023-12-22T06:39:10;95311.91;;;5.61;58.98
50977;BME280;36992;48.200;12.418;2023-12-22T06:41:37;95315.94;;;5.58;59.14
50977;BME280;36992;48.200;12.418;2023-12-22T06:44:04;95287.38;;;5.59;59.12
50977;BME280;36992;48.200;12.418;2023-12-22T06:46:30;95302.31;;;5.60;58.39
50977;BME280;36992;48.200;12.418;2023-12-22T06:48:57;95319.50;;;5.53;59.61
50977;BME280;36992;48.200;12.418;2023-12-22T06:51:25;95318.41;;;5.54;59.63
50977;BME280;36992;48.200;12.418;2023-12-22T06:53:53;95329.38;;;5.53;59.38
50977;BME280;36992;48.200;12.418;2023-12-22T06:56:22;95349.19;;;5.52;59.97
50977;BME280;36992;48.200;12.418;2023-12-22T06:58:50;95330.19;;;5.53;59.91
50977;BME280;36992;48.200;12.418;2023-12-22T07:01:18;95356.91;;;5.53;60.07
50977;BME280;36992;48.200;12.418;2023-12-22T07:03:46;95356.09;;;5.53;60.11
50977;BME280;36992;48.200;12.418;2023-12-22T07:06:13;95364.63;;;5.55;59.95
50977;BME280;36992;48.200;12.418;2023-12-22T07:08:39;95360.66;;;5.52;59.81
50977;BME280;36992;48.200;12.418;2023-12-22T07:11:06;95364.31;;;5.57;59.69
50977;BME280;36992;48.200;12.418;2023-12-22T07:13:34;95367.50;;;5.59;59.78
50977;BME280;36992;48.200;12.418;2023-12-22T07:16:01;95374.22;;;5.56;59.82
50977;BME280;36992;48.200;12.418;2023-12-22T07:18:28;95360.06;;;5.56;59.73
50977;BME280;36992;48.200;12.418;2023-12-22T07:20:55;95366.22;;;5.56;59.26
50977;BME280;36992;48.200;12.418;2023-12-22T07:23:22;95372.94;;;5.53;59.34
50977;BME280;36992;48.200;12.418;2023-12-22T07:25:49;95374.50;;;5.54;59.08
50977;BME280;36992;48.200;12.418;2023-12-22T07:28:15;95369.78;;;5.51;59.24
50977;BME280;36992;48.200;12.418;2023-12-22T07:30:43;95356.41;;;5.51;59.41
50977;BME280;36992;48.200;12.418;2023-12-22T07:33:10;95367.19;;;5.46;59.47
50977;BME280;36992;48.200;12.418;2023-12-22T07:35:36;95367.66;;;5.48;58.91
50977;BME280;36992;48.200;12.418;2023-12-22T07:38:03;95374.19;;;5.42;59.47
50977;BME280;36992;48.200;12.418;2023-12-22T07:40:30;95394.44;;;5.43;59.39
50977;BME280;36992;48.200;12.418;2023-12-22T07:42:57;95389.72;;;5.40;59.31
50977;BME280;36992;48.200;12.418;2023-12-22T07:45:23;95388.13;;;5.39;59.41
50977;BME280;36992;48.200;12.418;2023-12-22T07:47:51;95391.38;;;5.36;59.45
50977;BME280;36992;48.200;12.418;2023-12-22T07:50:18;95388.47;;;5.32;59.41
50977;BME280;36992;48.200;12.418;2023-12-22T07:52:46;95370.06;;;5.31;59.67
50977;BME280;36992;48.200;12.418;2023-12-22T07:55:13;95361.56;;;5.29;59.66
50977;BME280;36992;48.200;12.418;2023-12-22T07:57:40;95382.44;;;5.26;59.89
50977;BME280;36992;48.200;12.418;2023-12-22T08:00:08;95373.63;;;5.26;60.02
50977;BME280;36992;48.200;12.418;2023-12-22T08:02:36;95397.94;;;5.24;60.41
50977;BME280;36992;48.200;12.418;2023-12-22T08:05:04;95410.44;;;5.29;60.26
50977;BME280;36992;48.200;12.418;2023-12-22T08:07:31;95422.13;;;5.33;59.53
50977;BME280;36992;48.200;12.418;2023-12-22T08:09:58;95445.88;;;5.35;59.82
50977;BME280;36992;48.200;12.418;2023-12-22T08:12:24;95448.81;;;5.33;60.43
50977;BME280;36992;48.200;12.418;2023-12-22T08:14:51;95438.94;;;5.34;60.80
50977;BME280;36992;48.200;12.418;2023-12-22T08:17:18;95437.50;;;5.42;60.11
50977;BME280;36992;48.200;12.418;2023-12-22T08:19:44;95455.38;;;5.41;60.41
50977;BME280;36992;48.200;12.418;2023-12-22T08:22:12;95481.50;;;5.44;60.43
50977;BME280;36992;48.200;12.418;2023-12-22T08:24:39;95435.59;;;5.42;60.21
50977;BME280;36992;48.200;12.418;2023-12-22T08:27:07;95441.97;;;5.46;60.22
50977;BME280;36992;48.200;12.418;2023-12-22T08:29:33;95425.94;;;5.46;60.40
50977;BME280;36992;48.200;12.418;2023-12-22T08:32:00;95416.84;;;5.47;60.27
50977;BME280;36992;48.200;12.418;2023-12-22T08:34:27;95434.81;;;5.42;60.57
50977;BME280;36992;48.200;12.418;2023-12-22T08:36:54;95434.22;;;5.45;60.41
50977;BME280;36992;48.200;12.418;2023-12-22T08:39:22;95446.22;;;5.47;60.13
50977;BME280;36992;48.200;12.418;2023-12-22T08:41:49;95456.41;;;5.45;60.59
50977;BME280;36992;48.200;12.418;2023-12-22T08:44:16;95449.38;;;5.49;60.38
50977;BME280;36992;48.200;12.418;2023-12-22T08:46:42;95449.91;;;5.51;60.66
50977;BME280;36992;48.200;12.418;2023-12-22T08:49:09;95441.78;;;5.57;60.65
50977;BME280;36992;48.200;12.418;2023-12-22T08:51:36;95462.09;;;5.58;60.50
50977;BME280;36992;48.200;12.418;2023-12-22T08:54:02;95457.25;;;5.60;61.45
50977;BME280;36992;48.200;12.418;2023-12-22T08:56:30;95458.75;;;5.66;60.72
50977;BME280;36992;48.200;12.418;2023-12-22T08:58:57;95460.06;;;5.69;61.02
50977;BME280;36992;48.200;12.418;2023-12-22T09:01:24;95467.78;;;5.70;61.94
50977;BME280;36992;48.200;12.418;2023-12-22T09:03:51;95462.66;;;5.74;61.89
50977;BME280;36992;48.200;12.418;2023-12-22T09:06:19;95466.03;;;5.79;61.93
50977;BME280;36992;48.200;12.418;2023-12-22T09:08:46;95473.56;;;5.77;62.20
50977;BME280;36992;48.200;12.418;2023-12-22T09:11:15;95460.53;;;5.90;61.41
50977;BME280;36992;48.200;12.418;2023-12-22T09:13:43;95446.00;;;5.96;61.48
50977;BME280;36992;48.200;12.418;2023-12-22T09:16:11;95447.09;;;5.95;61.51
50977;BME280;36992;48.200;12.418;2023-12-22T09:18:40;95459.84;;;5.98;61.54
50977;BME280;36992;48.200;12.418;2023-12-22T09:21:07;95466.50;;;6.01;62.19
50977;BME280;36992;48.200;12.418;2023-12-22T09:23:34;95444.78;;;6.07;62.14
50977;BME280;36992;48.200;12.418;2023-12-22T09:26:00;95466.66;;;6.10;62.51
50977;BME280;36992;48.200;12.418;2023-12-22T09:28:27;95468.16;;;6.16;61.94
50977;BME280;36992;48.200;12.418;2023-12-22T09:30:54;95465.31;;;6.26;61.61
50977;BME280;36992;48.200;12.418;2023-12-22T09:33:21;95456.28;;;6.22;61.86
50977;BME280;36992;48.200;12.418;2023-12-22T09:35:48;95462.03;;;6.29;61.81
50977;BME280;36992;48.200;12.418;2023-12-22T09:38:16;95455.28;;;6.32;61.96
50977;BME280;36992;48.200;12.418;2023-12-22T09:40:42;95455.78;;;6.34;62.12
50977;BME280;36992;48.200;12.418;2023-12-22T09:43:09;95451.72;;;6.37;61.94
50977;BME280;36992;48.200;12.418;2023-12-22T09:45:41;95454.91;;;6.39;62.18
50977;BME280;36992;48.200;12.418;2023-12-22T09:48:10;95455.81;;;6.48;61.50
50977;BME280;36992;48.200;12.418;2023-12-22T09:50:42;95463.53;;;6.50;61.95
50977;BME280;36992;48.200;12.418;2023-12-22T09:53:10;95464.03;;;6.52;62.18
50977;BME280;36992;48.200;12.418;2023-12-22T09:55:38;95466.63;;;6.57;62.21
50977;BME280;36992;48.200;12.418;2023-12-22T09:58:06;95439.47;;;6.64;62.36
50977;BME280;36992;48.200;12.418;2023-12-22T10:00:35;95441.25;;;6.68;62.27
50977;BME280;36992;48.200;12.418;2023-12-22T10:03:03;95449.47;;;6.72;62.13
50977;BME280;36992;48.200;12.418;2023-12-22T10:05:33;95444.50;;;6.79;62.22
50977;BME280;36992;48.200;12.418;2023-12-22T10:08:00;95466.59;;;6.85;61.53
50977;BME280;36992;48.200;12.418;2023-12-22T10:10:28;95467.88;;;6.87;61.72
50977;BME280;36992;48.200;12.418;2023-12-22T10:12:55;95452.81;;;6.92;61.96
50977;BME280;36992;48.200;12.418;2023-12-22T10:15:23;95453.31;;;6.94;62.16
50977;BME280;36992;48.200;12.418;2023-12-22T10:17:50;95452.72;;;6.97;62.14
50977;BME280;36992;48.200;12.418;2023-12-22T10:20:17;95446.47;;;7.01;61.47
50977;BME280;36992;48.200;12.418;2023-12-22T10:22:45;95438.91;;;7.04;61.51
50977;BME280;36992;48.200;12.418;2023-12-22T10:25:14;95446.16;;;7.03;61.90
50977;BME280;36992;48.200;12.418;2023-12-22T10:27:42;95431.28;;;7.11;61.03
50977;BME280;36992;48.200;12.418;2023-12-22T10:30:10;95414.41;;;7.10;61.37
50977;BME280;36992;48.200;12.418;2023-12-22T10:32:39;95406.88;;;7.12;61.76
50977;BME280;36992;48.200;12.418;2023-12-22T10:35:07;95393.97;;;7.14;61.83
50977;BME280;36992;48.200;12.418;2023-12-22T10:37:34;95381.56;;;7.19;61.52
50977;BME280;36992;48.200;12.418;2023-12-22T10:40:05;95392.78;;;7.21;61.56
50977;BME280;36992;48.200;12.418;2023-12-22T10:42:32;95396.56;;;7.20;61.78
50977;BME280;36992;48.200;12.418;2023-12-22T10:44:59;95379.56;;;7.24;61.62
50977;BME280;36992;48.200;12.418;2023-12-22T10:47:25;95377.06;;;7.28;61.20
50977;BME280;36992;48.200;12.418;2023-12-22T10:49:52;95380.22;;;7.30;61.24
50977;BME280;36992;48.200;12.418;2023-12-22T10:52:19;95381.03;;;7.31;61.24
50977;BME280;36992;48.200;12.418;2023-12-22T10:54:46;95384.19;;;7.33;61.13
50977;BME280;36992;48.200;12.418;2023-12-22T10:57:18;95373.84;;;7.40;61.17
50977;BME280;36992;48.200;12.418;2023-12-22T10:59:46;95384.25;;;7.41;61.39
50977;BME280;36992;48.200;12.418;2023-12-22T11:02:16;95404.97;;;7.50;60.87
50977;BME280;36992;48.200;12.418;2023-12-22T11:04:47;95394.25;;;7.50;60.76
50977;BME280;36992;48.200;12.418;2023-12-22T11:07:22;95403.06;;;7.50;61.35
50977;BME280;36992;48.200;12.418;2023-12-22T11:09:51;95402.16;;;7.55;60.88
50977;BME280;36992;48.200;12.418;2023-12-22T11:12:19;95384.09;;;7.61;60.49
50977;BME280;36992;48.200;12.418;2023-12-22T11:14:46;95397.31;;;7.57;60.49
50977;BME280;36992;48.200;12.418;2023-12-22T11:17:17;95401.06;;;7.56;60.14
50977;BME280;36992;48.200;12.418;2023-12-22T11:19:47;95420.44;;;7.53;60.27
50977;BME280;36992;48.200;12.418;2023-12-22T11:22:17;95423.41;;;7.51;59.89
50977;BME280;36992;48.200;12.418;2023-12-22T11:24:46;95411.94;;;7.51;60.16
50977;BME280;36992;48.200;12.418;2023-12-22T11:27:13;95404.00;;;7.46;59.33
50977;BME280;36992;48.200;12.418;2023-12-22T11:29:45;95408.38;;;7.41;59.41
50977;BME280;36992;48.200;12.418;2023-12-22T11:32:15;95418.72;;;7.34;59.47
50977;BME280;36992;48.200;12.418;2023-12-22T11:34:42;95408.13;;;7.29;59.43
50977;BME280;36992;48.200;12.418;2023-12-22T11:37:11;95398.63;;;7.23;59.33
50977;BME280;36992;48.200;12.418;2023-12-22T11:39:38;95378.88;;;7.19;59.46
50977;BME280;36992;48.200;12.418;2023-12-22T11:42:06;95402.50;;;7.17;59.61
50977;BME280;36992;48.200;12.418;2023-12-22T11:44:35;95395.19;;;7.08;59.72
50977;BME280;36992;48.200;12.418;2023-12-22T11:47:07;95369.19;;;7.09;59.90
50977;BME280;36992;48.200;12.418;2023-12-22T11:49:35;95380.44;;;6.97;60.32
50977;BME280;36992;48.200;12.418;2023-12-22T11:52:13;95377.75;;;6.97;60.29
50977;BME280;36992;48.200;12.418;2023-12-22T11:54:46;95370.22;;;6.99;60.19
50977;BME280;36992;48.200;12.418;2023-12-22T11:57:29;95358.91;;;7.02;60.27
50977;BME280;36992;48.200;12.418;2023-12-22T11:59:57;95359.31;;;6.95;60.78
50977;BME280;36992;48.200;12.418;2023-12-22T12:02:26;95370.50;;;6.97;60.82
50977;BME280;36992;48.200;12.418;2023-12-22T12:04:53;95361.88;;;7.00;60.59
50977;BME280;36992;48.200;12.418;2023-12-22T12:07:40;95371.19;;;7.03;60.50
50977;BME280;36992;48.200;12.418;2023-12-22T12:10:07;95364.81;;;7.13;60.08
50977;BME280;36992;48.200;12.418;2023-12-22T12:12:34;95354.31;;;7.02;61.08
50977;BME280;36992;48.200;12.418;2023-12-22T12:15:13;95346.47;;;7.06;60.74
50977;BME280;36992;48.200;12.418;2023-12-22T12:17:44;95347.56;;;7.05;61.01
50977;BME280;36992;48.200;12.418;2023-12-22T12:20:11;95339.25;;;7.07;61.34
50977;BME280;36992;48.200;12.418;2023-12-22T12:22:42;95329.81;;;7.09;61.53
50977;BME280;36992;48.200;12.418;2023-12-22T12:25:10;95326.03;;;7.10;61.64
50977;BME280;36992;48.200;12.418;2023-12-22T12:27:38;95308.56;;;7.13;61.85
50977;BME280;36992;48.200;12.418;2023-12-22T12:30:13;95313.00;;;7.18;61.83
50977;BME280;36992;48.200;12.418;2023-12-22T12:32:45;95300.53;;;7.13;62.81
50977;BME280;36992;48.200;12.418;2023-12-22T12:35:16;95295.25;;;7.22;63.02
50977;BME280;36992;48.200;12.418;2023-12-22T12:37:44;95301.09;;;7.24;63.18
50977;BME280;36992;48.200;12.418;2023-12-22T12:40:11;95289.66;;;7.32;62.91
50977;BME280;36992;48.200;12.418;2023-12-22T12:42:38;95287.16;;;7.36;62.83
50977;BME280;36992;48.200;12.418;2023-12-22T12:45:07;95295.84;;;7.41;62.73
50977;BME280;36992;48.200;12.418;2023-12-22T12:47:34;95269.69;;;7.47;62.80
50977;BME280;36992;48.200;12.418;2023-12-22T12:50:02;95282.50;;;7.50;62.42
50977;BME280;36992;48.200;12.418;2023-12-22T12:52:29;95267.56;;;7.58;62.54
50977;BME280;36992;48.200;12.418;2023-12-22T12:54:56;95277.06;;;7.64;62.20
50977;BME280;36992;48.200;12.418;2023-12-22T12:57:24;95265.69;;;7.67;62.09
50977;BME280;36992;48.200;12.418;2023-12-22T12:59:51;95264.78;;;7.72;61.96
50977;BME280;36992;48.200;12.418;2023-12-22T13:02:18;95259.28;;;7.77;62.05